Cheney, WA

9:49 AM PDT on August 28, 2014 (GMT -0700)
Malloy Prairie | Change Station
CLOSE
Current Station
Personal Weather Station
Location: Cheney, WA
Elevation: 2374 ft
Nearby Weather Stations

Elev 2374 ft 47.50 °N, 117.77 °W | Updated 5 seconds ago

Clear
Clear
73.9 °F
Feels Like 77 °F
N
5.0
Wind Variable Wind from SE
Gusts 7.0 mph

Today
High -- | Low -- °F
--% Chance of Precip.
Yesterday
High -- | Low -- °F
Precip. -- in
6:04 AM 7:38 PM
Waxing Crescent, 9% visible
Pressure 29.97 in
Visibility 10.0 miles
Clouds Clear
Heat Index 77 °F
Dew Point 56 °F
Humidity 53%
Rainfall 0.00 in
Snow Depth Not available.
UV 3 out of 12
Pollen 7.70 out of 12
PM2.5 Moderate
Flu Activity Not available.
METAR KSKA 281558Z AUTO 20010KT 10SM CLR 20/11 A3000 RMK AO2 SLP147 T01980106

More Conditions Fewer Conditions

Pressure 29.97 in
Visibility 10.0 miles
Clouds Clear
Heat Index 77 °F
Dew Point 56 °F
Humidity 53%
Rainfall 0.00 in
Snow Depth Not available.
UV 3 out of 12
Pollen 7.70 out of 12
PM2.5 Moderate
Flu Activity Not available.
METAR KSKA 281558Z AUTO 20010KT 10SM CLR 20/11 A3000 RMK AO2 SLP147 T01980106

More Conditions Fewer Conditions

10-Day Weather Forecast

Almanac

Astronomy

Aug. 28, 2014 Rise Set
Actual Time 6:04 AM PDT 7:38 PM PDT
Civil Twilight 5:31 AM PDT 8:10 PM PDT
Nautical Twilight 4:52 AM PDT 8:49 PM PDT
Astronomical Twilight 4:10 AM PDT 9:31 PM PDT
Moon 9:16 AM PDT 8:48 PM PDT
Length of Visible Light 14h 38m
Length of Day
13h 34m
Tomorrow will be 3m 16s shorter.
Waxing Crescent, 9% of the Moon is Illuminated
Today
Waxing Crescent
Sep 2
First Quarter
Sep 8
Full
Sep 15
Last Quarter
Sep 24
New

Today's Extremes

State Highs State Lows

Community

WunderPhotos

Upload Photos

1,748,013 photos uploaded!

Nearby

Air Quality

  Air Quality AQ Index Pollutant
Yesterday Good
PM10
Yesterday Good
OZONE
Current Moderate
PM2.5
Thursday Good
PM10
Thursday Good
OZONE

Snow Depth

Station Depth Elevation
Quartz Peak 1 in 4700 ft
Spruce Springs 0 in 5700 ft
Bunchgrass Meadow 0 in 5000 ft
Moses Mountain 1 in 5300 ft
Sentinel Butte 0 in 4920 ft

Earthquake Activity

City Distance Mag. Time & Date
No recent earthquake activity has been reported nearby.
Minimum magnitude displayed is 2.5.

Coastal Water Temperatures

Place Temperature
No Stations Reporting

Nearby Weather Stations